Time;durP1;ratioP1;P1;durP2;ratioP2;P2;SDS_P1;SDS_P2;PMS_P1;PMS_P2;Temp;Humidity;BMP_temperature;BMP_pressure;BME280_temperature;BME280_humidity;BME280_pressure;Samples;Min_cycle;Max_cycle;Signal;HPM_P1;HPM_P2
2021/10/24 00:01:48;;;;;;;;;24.33;24.00;;;;;;;;5104696;28;8836;-77
2021/10/24 00:04:14;;;;;;;;;16.33;15.00;;;;;;;;5108855;28;8818;-78
2021/10/24 00:06:40;;;;;;;;;19.67;19.33;;;;;;;;5108107;28;8822;-78
2021/10/24 00:09:05;;;;;;;;;15.33;14.33;;;;;;;;5107782;28;8753;-78
2021/10/24 00:11:30;;;;;;;;;10.67;9.67;;;;;;;;5108935;28;9605;-78
2021/10/24 00:13:55;;;;;;;;;13.33;13.00;;;;;;;;5109233;28;8797;-78
2021/10/24 00:16:21;;;;;;;;;11.00;11.00;;;;;;;;5108189;28;8797;-78
2021/10/24 00:18:47;;;;;;;;;12.00;12.00;;;;;;;;5102460;28;8801;-79
2021/10/24 00:21:12;;;;;;;;;14.00;13.00;;;;;;;;5097462;28;8826;-79
2021/10/24 00:23:37;;;;;;;;;8.00;6.67;;;;;;;;5095278;28;9046;-79
2021/10/24 00:26:03;;;;;;;;;13.00;11.67;;;;;;;;5096408;28;8801;-79
2021/10/24 00:28:28;;;;;;;;;12.67;12.67;;;;;;;;5094920;28;8806;-79
2021/10/24 00:30:53;;;;;;;;;14.33;14.33;;;;;;;;5108327;28;8807;-79
2021/10/24 00:33:19;;;;;;;;;13.33;12.67;;;;;;;;5127740;27;8791;-76
2021/10/24 00:35:45;;;;;;;;;15.33;14.33;;;;;;;;5126599;28;8747;-77
2021/10/24 00:38:10;;;;;;;;;14.67;12.33;;;;;;;;5125764;28;9941;-78
2021/10/24 00:40:36;;;;;;;;;11.00;10.67;;;;;;;;5128475;27;8783;-78
2021/10/24 00:43:02;;;;;;;;;12.00;10.00;;;;;;;;5127977;27;8783;-78
2021/10/24 00:45:27;;;;;;;;;16.00;14.00;;;;;;;;5129596;27;8739;-78
2021/10/24 00:47:53;;;;;;;;;12.67;12.00;;;;;;;;5131168;27;9288;-78
2021/10/24 00:50:18;;;;;;;;;14.00;13.67;;;;;;;;5122520;27;8783;-79
2021/10/24 00:52:45;;;;;;;;;14.33;11.33;;;;;;;;5119912;27;8803;-78
2021/10/24 00:55:10;;;;;;;;;10.33;10.33;;;;;;;;5120604;27;8860;-79
2021/10/24 00:57:35;;;;;;;;;16.33;14.33;;;;;;;;5120131;28;8997;-79
2021/10/24 01:00:06;;;;;;;;;13.33;13.33;;;;;;;;5119274;28;9570;-79
2021/10/24 01:02:31;;;;;;;;;13.00;13.00;;;;;;;;5120913;27;8837;-77
2021/10/24 01:04:56;;;;;;;;;12.33;12.00;;;;;;;;5130319;27;9187;-77
2021/10/24 01:07:21;;;;;;;;;12.67;12.67;;;;;;;;5129891;27;8807;-78
2021/10/24 01:09:47;;;;;;;;;15.67;13.67;;;;;;;;5128533;28;8794;-77
2021/10/24 01:12:14;;;;;;;;;15.33;15.33;;;;;;;;5132353;27;8870;-77
2021/10/24 01:14:39;;;;;;;;;12.33;12.33;;;;;;;;5129218;27;8762;-77
2021/10/24 01:17:05;;;;;;;;;15.33;13.67;;;;;;;;5129977;27;8984;-77
2021/10/24 01:19:30;;;;;;;;;13.00;12.00;;;;;;;;5124510;27;8787;-78
2021/10/24 01:21:55;;;;;;;;;15.00;13.00;;;;;;;;5119339;27;8775;-78
2021/10/24 01:24:20;;;;;;;;;13.00;12.67;;;;;;;;5119482;27;8806;-78
2021/10/24 01:26:45;;;;;;;;;12.00;12.00;;;;;;;;5119584;27;8775;-78
2021/10/24 01:29:11;;;;;;;;;13.00;11.67;;;;;;;;5119525;27;8782;-78
2021/10/24 01:31:37;;;;;;;;;9.33;9.33;;;;;;;;5102097;27;8777;-77
2021/10/24 01:34:04;;;;;;;;;13.33;12.67;;;;;;;;5106651;28;8800;-77
2021/10/24 01:36:29;;;;;;;;;13.00;13.00;;;;;;;;5104591;28;8766;-77
2021/10/24 01:38:54;;;;;;;;;13.00;11.33;;;;;;;;5098802;28;9073;-78
2021/10/24 01:41:23;;;;;;;;;13.33;13.33;;;;;;;;5097867;28;8817;-78
2021/10/24 01:43:48;;;;;;;;;13.75;13.25;;;;;;;;5097452;28;8818;-79
2021/10/24 01:46:13;;;;;;;;;14.67;12.33;;;;;;;;5097107;28;8793;-78
2021/10/24 01:48:39;;;;;;;;;12.67;12.33;;;;;;;;5099074;28;8798;-78
2021/10/24 01:51:04;;;;;;;;;13.00;11.33;;;;;;;;5106165;28;8924;-78
2021/10/24 01:53:33;;;;;;;;;13.67;12.33;;;;;;;;5107331;28;8790;-76
2021/10/24 01:55:58;;;;;;;;;12.25;10.75;;;;;;;;5109059;28;8706;-77
2021/10/24 01:58:23;;;;;;;;;12.67;11.33;;;;;;;;5108532;28;8831;-77
2021/10/24 02:00:49;;;;;;;;;11.33;10.33;;;;;;;;5108057;28;8817;-77
2021/10/24 02:03:15;;;;;;;;;16.00;12.75;;;;;;;;5108548;28;8742;-78
2021/10/24 02:05:41;;;;;;;;;13.33;13.33;;;;;;;;5106437;28;8808;-77
2021/10/24 02:08:06;;;;;;;;;12.67;12.00;;;;;;;;5100551;28;8781;-78
2021/10/24 02:10:32;;;;;;;;;14.00;13.33;;;;;;;;5098450;28;8794;-78
2021/10/24 02:12:57;;;;;;;;;11.00;10.67;;;;;;;;5099138;28;8797;-78
2021/10/24 02:15:23;;;;;;;;;11.00;11.00;;;;;;;;5098397;28;8777;-78
2021/10/24 02:17:48;;;;;;;;;12.33;10.00;;;;;;;;5097859;28;8833;-78
2021/10/24 02:20:14;;;;;;;;;12.33;12.00;;;;;;;;5099057;28;8805;-77
2021/10/24 02:22:39;;;;;;;;;11.67;11.67;;;;;;;;5105229;28;8806;-77
2021/10/24 02:25:05;;;;;;;;;12.00;10.67;;;;;;;;5107380;28;8829;-77
2021/10/24 02:27:30;;;;;;;;;12.67;11.00;;;;;;;;5108516;28;8823;-76
2021/10/24 02:29:55;;;;;;;;;15.67;13.33;;;;;;;;5114618;28;8795;-77
2021/10/24 02:32:21;;;;;;;;;13.67;12.67;;;;;;;;5127554;28;8799;-76
2021/10/24 02:34:46;;;;;;;;;13.00;12.00;;;;;;;;5129181;27;8825;-76
2021/10/24 02:37:14;;;;;;;;;12.67;11.67;;;;;;;;5127997;27;8909;-77
2021/10/24 02:39:39;;;;;;;;;14.33;13.00;;;;;;;;5119751;27;8806;-78
2021/10/24 02:42:06;;;;;;;;;13.33;12.67;;;;;;;;5116902;28;8883;-78
2021/10/24 02:44:31;;;;;;;;;13.67;12.00;;;;;;;;5118098;27;8776;-78
2021/10/24 02:46:56;;;;;;;;;13.67;12.33;;;;;;;;5118261;27;9101;-77
2021/10/24 02:49:22;;;;;;;;;15.33;14.33;;;;;;;;5121039;27;8841;-78
2021/10/24 02:51:48;;;;;;;;;13.33;13.00;;;;;;;;5121471;27;8763;-77
2021/10/24 02:54:14;;;;;;;;;15.00;12.33;;;;;;;;5128855;27;8767;-77
2021/10/24 02:56:39;;;;;;;;;11.00;11.00;;;;;;;;5129545;27;8905;-77
2021/10/24 02:59:05;;;;;;;;;16.33;14.33;;;;;;;;5127847;27;8787;-77
2021/10/24 03:01:30;;;;;;;;;10.00;10.00;;;;;;;;5128084;27;8794;-77
2021/10/24 03:03:55;;;;;;;;;13.00;12.67;;;;;;;;5128463;27;8783;-77
2021/10/24 03:06:21;;;;;;;;;13.67;12.00;;;;;;;;5126117;27;8801;-77
2021/10/24 03:08:46;;;;;;;;;10.67;10.67;;;;;;;;5123971;27;8791;-78
2021/10/24 03:11:11;;;;;;;;;10.33;8.00;;;;;;;;5116488;28;8806;-78
2021/10/24 03:13:36;;;;;;;;;15.00;12.67;;;;;;;;5117872;27;9568;-78
2021/10/24 03:16:02;;;;;;;;;11.33;11.33;;;;;;;;5116424;28;8833;-78
2021/10/24 03:18:27;;;;;;;;;10.00;10.00;;;;;;;;5116305;28;8835;-78
2021/10/24 03:20:52;;;;;;;;;10.67;10.33;;;;;;;;5118534;27;8806;-78
2021/10/24 03:23:18;;;;;;;;;11.00;11.00;;;;;;;;5126546;27;8903;-77
2021/10/24 03:25:44;;;;;;;;;8.67;8.67;;;;;;;;5127883;27;8799;-77
2021/10/24 03:28:09;;;;;;;;;12.33;11.33;;;;;;;;5126488;27;8779;-78
2021/10/24 03:30:34;;;;;;;;;13.67;12.33;;;;;;;;5115787;28;8797;-77
2021/10/24 03:32:59;;;;;;;;;10.00;10.00;;;;;;;;5106050;28;8895;-77
2021/10/24 03:35:26;;;;;;;;;12.67;11.00;;;;;;;;5106025;28;8810;-77
2021/10/24 03:37:51;;;;;;;;;12.75;12.00;;;;;;;;5106426;28;8734;-77
2021/10/24 03:40:16;;;;;;;;;9.67;9.67;;;;;;;;5098102;28;9649;-78
2021/10/24 03:42:42;;;;;;;;;9.33;9.33;;;;;;;;5097621;28;8789;-78
2021/10/24 03:45:08;;;;;;;;;12.00;11.67;;;;;;;;5097652;28;8896;-78
2021/10/24 03:47:33;;;;;;;;;13.33;10.67;;;;;;;;5098425;28;8781;-78
2021/10/24 03:49:58;;;;;;;;;12.00;12.00;;;;;;;;5095289;28;8875;-78
2021/10/24 03:52:24;;;;;;;;;13.00;13.00;;;;;;;;5097823;28;9584;-78
2021/10/24 03:54:49;;;;;;;;;11.00;11.00;;;;;;;;5103736;28;8785;-77
2021/10/24 03:57:14;;;;;;;;;13.00;10.00;;;;;;;;5103024;28;8894;-76
2021/10/24 03:59:39;;;;;;;;;14.33;13.00;;;;;;;;5106784;28;8853;-76
2021/10/24 04:02:05;;;;;;;;;10.00;10.00;;;;;;;;5104086;28;8789;-77
2021/10/24 04:04:30;;;;;;;;;11.00;11.00;;;;;;;;5102895;28;8824;-76
2021/10/24 04:06:55;;;;;;;;;14.67;12.33;;;;;;;;5102489;28;8817;-76
2021/10/24 04:09:20;;;;;;;;;11.00;11.00;;;;;;;;5102789;28;8782;-76
2021/10/24 04:11:46;;;;;;;;;11.33;9.67;;;;;;;;5099641;28;8841;-78
2021/10/24 04:14:11;;;;;;;;;8.67;8.67;;;;;;;;5098468;28;8906;-78
2021/10/24 04:16:36;;;;;;;;;11.00;10.00;;;;;;;;5095167;28;8849;-78
2021/10/24 04:19:01;;;;;;;;;10.33;10.00;;;;;;;;5096492;28;8870;-78
2021/10/24 04:21:27;;;;;;;;;11.33;11.33;;;;;;;;5097318;28;8805;-78
2021/10/24 04:23:53;;;;;;;;;11.67;11.67;;;;;;;;5097510;28;8766;-77
2021/10/24 04:26:18;;;;;;;;;11.67;10.67;;;;;;;;5102754;28;8999;-76
2021/10/24 04:28:43;;;;;;;;;9.67;9.00;;;;;;;;5103079;28;8813;-77
2021/10/24 04:31:08;;;;;;;;;12.67;11.33;;;;;;;;5119112;28;8779;-76
2021/10/24 04:33:34;;;;;;;;;12.67;12.33;;;;;;;;5122419;28;8819;-75
2021/10/24 04:35:59;;;;;;;;;9.67;9.00;;;;;;;;5123465;28;8771;-77
2021/10/24 04:38:25;;;;;;;;;11.67;11.67;;;;;;;;5123809;27;8872;-76
2021/10/24 04:40:50;;;;;;;;;9.67;9.67;;;;;;;;5123777;27;8767;-77
2021/10/24 04:43:16;;;;;;;;;11.33;10.33;;;;;;;;5117812;28;8993;-78
2021/10/24 04:45:41;;;;;;;;;11.67;10.67;;;;;;;;5117608;27;8779;-78
2021/10/24 04:48:07;;;;;;;;;11.00;11.00;;;;;;;;5115369;28;8835;-78
2021/10/24 04:50:32;;;;;;;;;12.67;11.67;;;;;;;;5116632;27;8818;-78
2021/10/24 04:52:57;;;;;;;;;12.00;12.00;;;;;;;;5117024;27;8885;-78
2021/10/24 04:55:23;;;;;;;;;11.00;11.00;;;;;;;;5117233;28;8799;-77
2021/10/24 04:57:48;;;;;;;;;13.00;12.00;;;;;;;;5121968;27;8847;-77
2021/10/24 05:00:13;;;;;;;;;12.33;11.00;;;;;;;;5122222;27;8775;-77
2021/10/24 05:02:39;;;;;;;;;14.33;11.33;;;;;;;;5122509;27;9677;-78
2021/10/24 05:05:05;;;;;;;;;12.33;12.33;;;;;;;;5122893;27;8759;-77
2021/10/24 05:07:31;;;;;;;;;11.33;11.00;;;;;;;;5121594;28;9883;-77
2021/10/24 05:09:56;;;;;;;;;11.33;11.33;;;;;;;;5124009;27;8868;-77
2021/10/24 05:12:21;;;;;;;;;12.67;12.67;;;;;;;;5123649;27;8787;-76
2021/10/24 05:14:46;;;;;;;;;11.67;11.67;;;;;;;;5116849;27;8841;-78
2021/10/24 05:17:12;;;;;;;;;14.00;14.00;;;;;;;;5116045;27;8865;-78
2021/10/24 05:19:37;;;;;;;;;13.00;12.00;;;;;;;;5116498;27;8806;-78
2021/10/24 05:22:02;;;;;;;;;17.33;17.00;;;;;;;;5116185;27;9526;-78
2021/10/24 05:24:28;;;;;;;;;16.67;16.00;;;;;;;;5116379;27;8868;-79
2021/10/24 05:26:53;;;;;;;;;12.33;12.33;;;;;;;;5119446;27;8791;-77
2021/10/24 05:29:18;;;;;;;;;12.67;12.67;;;;;;;;5122898;27;8890;-77
2021/10/24 05:31:44;;;;;;;;;16.33;16.33;;;;;;;;5105668;28;8801;-76
2021/10/24 05:34:09;;;;;;;;;12.00;12.00;;;;;;;;5105678;28;8896;-77
2021/10/24 05:36:34;;;;;;;;;14.67;14.67;;;;;;;;5105321;28;8813;-77
2021/10/24 05:38:59;;;;;;;;;10.00;10.00;;;;;;;;5106189;28;8786;-76
2021/10/24 05:41:25;;;;;;;;;12.00;11.33;;;;;;;;5106570;28;8806;-77
2021/10/24 05:43:50;;;;;;;;;10.33;10.00;;;;;;;;5104002;28;8809;-79
2021/10/24 05:46:15;;;;;;;;;9.00;9.00;;;;;;;;5098205;28;8918;-79
2021/10/24 05:48:41;;;;;;;;;11.67;11.67;;;;;;;;5098903;28;8797;-78
2021/10/24 05:51:09;;;;;;;;;15.00;13.67;;;;;;;;5098629;28;8798;-79
2021/10/24 05:53:34;;;;;;;;;14.00;13.00;;;;;;;;5099272;28;8770;-78
2021/10/24 05:55:59;;;;;;;;;14.00;12.00;;;;;;;;5098774;28;9130;-79
2021/10/24 05:58:24;;;;;;;;;12.67;10.00;;;;;;;;5100662;28;8846;-79
2021/10/24 06:00:49;;;;;;;;;11.00;11.00;;;;;;;;5098914;28;8899;-78
2021/10/24 06:03:15;;;;;;;;;13.33;13.33;;;;;;;;5104484;28;8963;-78
2021/10/24 06:05:41;;;;;;;;;15.00;13.00;;;;;;;;5101179;28;8793;-76
2021/10/24 06:08:06;;;;;;;;;12.67;12.67;;;;;;;;5103999;28;8770;-78
2021/10/24 06:10:34;;;;;;;;;14.33;14.33;;;;;;;;5100722;28;9193;-75
2021/10/24 06:13:00;;;;;;;;;12.33;12.33;;;;;;;;5103301;28;8766;-78
2021/10/24 06:15:26;;;;;;;;;11.00;11.00;;;;;;;;5103040;28;8882;-76
2021/10/24 06:17:51;;;;;;;;;12.33;12.33;;;;;;;;5101566;28;8985;-75
2021/10/24 06:20:17;;;;;;;;;19.33;14.67;;;;;;;;5104466;28;8789;-75
2021/10/24 06:22:43;;;;;;;;;13.00;13.00;;;;;;;;5106035;28;8794;-76
2021/10/24 06:25:09;;;;;;;;;12.00;11.33;;;;;;;;5106555;28;8921;-75
2021/10/24 06:27:37;;;;;;;;;15.67;13.67;;;;;;;;5107728;28;8797;-76
2021/10/24 06:30:06;;;;;;;;;16.33;13.00;;;;;;;;5120070;28;8986;-76
2021/10/24 06:32:32;;;;;;;;;15.00;15.00;;;;;;;;5130583;27;9109;-76
2021/10/24 06:34:57;;;;;;;;;18.67;15.00;;;;;;;;5118619;28;9183;-76
2021/10/24 06:37:22;;;;;;;;;17.00;15.00;;;;;;;;5118947;27;8890;-77
2021/10/24 06:39:48;;;;;;;;;15.00;13.33;;;;;;;;5121138;27;8787;-79
2021/10/24 06:42:13;;;;;;;;;12.00;11.50;;;;;;;;5118599;27;8848;-79
2021/10/24 06:44:38;;;;;;;;;12.00;12.00;;;;;;;;5119684;28;8822;-78
2021/10/24 06:47:04;;;;;;;;;15.00;15.00;;;;;;;;5118634;27;8894;-78
2021/10/24 06:49:31;;;;;;;;;14.00;12.67;;;;;;;;5119576;27;8948;-76
2021/10/24 06:51:58;;;;;;;;;16.67;14.33;;;;;;;;5119438;28;8875;-79
2021/10/24 06:54:24;;;;;;;;;14.00;13.00;;;;;;;;5121700;27;9183;-76
2021/10/24 06:56:49;;;;;;;;;13.00;12.33;;;;;;;;5127565;27;9301;-76
2021/10/24 06:59:15;;;;;;;;;15.67;15.33;;;;;;;;5124367;27;8811;-76
2021/10/24 07:01:40;;;;;;;;;14.67;13.67;;;;;;;;5122094;28;8794;-76
2021/10/24 07:04:09;;;;;;;;;16.00;15.00;;;;;;;;5124630;27;9542;-77
2021/10/24 07:06:34;;;;;;;;;16.33;13.00;;;;;;;;5121346;28;8704;-77
2021/10/24 07:09:00;;;;;;;;;14.67;12.00;;;;;;;;5124568;27;9140;-75
2021/10/24 07:11:25;;;;;;;;;18.67;15.00;;;;;;;;5122937;28;8787;-75
2021/10/24 07:13:50;;;;;;;;;16.00;16.00;;;;;;;;5117989;28;8821;-74
2021/10/24 07:16:15;;;;;;;;;15.33;15.33;;;;;;;;5118947;28;8833;-76
2021/10/24 07:18:41;;;;;;;;;18.67;17.00;;;;;;;;5118440;27;8826;-76
2021/10/24 07:21:06;;;;;;;;;15.67;13.00;;;;;;;;5117510;28;8917;-78
2021/10/24 07:23:31;;;;;;;;;56.00;46.50;;;;;;;;5118445;27;8795;-79
2021/10/24 07:25:56;;;;;;;;;20.67;20.67;;;;;;;;5119686;28;8933;-79
2021/10/24 07:28:21;;;;;;;;;19.33;18.00;;;;;;;;5119735;27;8914;-79
2021/10/24 07:30:47;;;;;;;;;17.67;16.67;;;;;;;;5120387;27;8807;-79
2021/10/24 07:33:12;;;;;;;;;31.00;29.75;;;;;;;;5119691;27;8799;-80
2021/10/24 07:35:37;;;;;;;;;20.00;19.33;;;;;;;;5101999;27;8836;-78
2021/10/24 07:38:04;;;;;;;;;17.00;15.67;;;;;;;;5091204;28;8890;-78
2021/10/24 07:40:29;;;;;;;;;20.67;19.33;;;;;;;;5093442;28;8798;-79
2021/10/24 07:42:55;;;;;;;;;20.00;20.00;;;;;;;;5080746;28;9330;-80
2021/10/24 07:45:20;;;;;;;;;22.00;21.33;;;;;;;;5091075;28;8904;-80
2021/10/24 07:47:46;;;;;;;;;19.33;17.67;;;;;;;;5092129;28;8849;-79
2021/10/24 07:50:11;;;;;;;;;17.00;17.00;;;;;;;;5096858;28;8836;-81
2021/10/24 07:52:37;;;;;;;;;17.67;15.33;;;;;;;;5101001;28;9251;-80
2021/10/24 07:55:03;;;;;;;;;15.00;14.67;;;;;;;;5104702;28;8824;-81
2021/10/24 07:57:28;;;;;;;;;18.33;17.33;;;;;;;;5107247;28;11588;-80
2021/10/24 07:59:54;;;;;;;;;20.33;19.67;;;;;;;;5108017;28;8876;-80
2021/10/24 08:02:19;;;;;;;;;15.67;14.00;;;;;;;;5100849;28;8822;-80
2021/10/24 08:04:45;;;;;;;;;18.33;16.67;;;;;;;;5099720;28;8805;-80
2021/10/24 08:07:10;;;;;;;;;12.00;12.00;;;;;;;;5092339;28;8837;-78
2021/10/24 08:09:35;;;;;;;;;19.00;17.33;;;;;;;;5108246;28;8833;-79
2021/10/24 08:12:01;;;;;;;;;13.00;13.00;;;;;;;;5106414;28;8928;-79
2021/10/24 08:14:26;;;;;;;;;17.33;16.00;;;;;;;;5111879;28;8821;-79
2021/10/24 08:16:52;;;;;;;;;18.00;15.33;;;;;;;;5089292;28;8922;-82
2021/10/24 08:19:18;;;;;;;;;16.67;15.00;;;;;;;;5089440;28;8840;-82
2021/10/24 08:21:43;;;;;;;;;15.33;14.00;;;;;;;;5089970;28;8745;-79
2021/10/24 08:24:08;;;;;;;;;13.33;13.00;;;;;;;;5086342;28;9359;-82
2021/10/24 08:26:34;;;;;;;;;14.33;13.00;;;;;;;;5087500;28;8870;-82
2021/10/24 08:29:00;;;;;;;;;15.00;15.00;;;;;;;;5095053;28;8784;-82
2021/10/24 08:31:27;;;;;;;;;14.00;13.00;;;;;;;;5110027;28;8836;-82
2021/10/24 08:33:53;;;;;;;;;17.00;14.33;;;;;;;;5110267;28;8815;-79
2021/10/24 08:36:18;;;;;;;;;13.00;12.33;;;;;;;;5102336;28;9216;-79
2021/10/24 08:38:43;;;;;;;;;12.00;12.00;;;;;;;;5095898;28;10047;-79
2021/10/24 08:41:10;;;;;;;;;12.67;12.33;;;;;;;;5087583;28;9664;-82
2021/10/24 08:43:37;;;;;;;;;14.00;13.00;;;;;;;;5088384;28;8782;-79
2021/10/24 08:46:02;;;;;;;;;14.00;12.00;;;;;;;;5086354;28;9203;-81
2021/10/24 08:48:28;;;;;;;;;13.67;13.67;;;;;;;;5090484;28;9187;-82
2021/10/24 08:50:53;;;;;;;;;14.00;12.00;;;;;;;;5081760;28;8802;-81
2021/10/24 08:53:23;;;;;;;;;14.67;13.67;;;;;;;;5093583;28;8849;-79
2021/10/24 08:55:48;;;;;;;;;15.67;13.00;;;;;;;;5100509;28;8813;-80
2021/10/24 08:58:14;;;;;;;;;16.67;15.00;;;;;;;;5091889;28;8930;-80
2021/10/24 09:00:39;;;;;;;;;16.00;13.33;;;;;;;;5093589;28;9025;-82
2021/10/24 09:03:09;;;;;;;;;14.00;13.67;;;;;;;;5094406;28;8836;-82
2021/10/24 09:05:41;;;;;;;;;14.00;12.00;;;;;;;;5094849;28;8817;-80
2021/10/24 09:08:07;;;;;;;;;13.33;11.33;;;;;;;;5097276;28;9144;-82
2021/10/24 09:10:36;;;;;;;;;15.67;15.00;;;;;;;;5091477;28;8882;-81
2021/10/24 09:13:05;;;;;;;;;14.75;12.00;;;;;;;;5087356;28;8804;-78
2021/10/24 09:15:52;;;;;;;;;15.67;15.67;;;;;;;;5094709;28;9727;-76
2021/10/24 09:18:18;;;;;;;;;13.75;12.75;;;;;;;;5087361;28;8903;-78
2021/10/24 09:20:43;;;;;;;;;15.67;14.67;;;;;;;;5097261;28;8872;-79
2021/10/24 09:23:11;;;;;;;;;16.00;14.00;;;;;;;;5090478;28;8814;-78
2021/10/24 09:25:56;;;;;;;;;15.00;13.75;;;;;;;;5090662;28;8778;-77
2021/10/24 09:28:22;;;;;;;;;11.50;11.25;;;;;;;;5095176;28;8750;-80
2021/10/24 09:30:58;;;;;;;;;17.00;15.75;;;;;;;;5099878;28;8783;-80
2021/10/24 09:33:25;;;;;;;;;12.00;11.33;;;;;;;;5096179;28;8754;-81
2021/10/24 09:35:50;;;;;;;;;14.75;14.00;;;;;;;;5096710;28;8989;-81
2021/10/24 09:38:20;;;;;;;;;19.00;16.33;;;;;;;;5094250;28;8888;-80
2021/10/24 09:40:47;;;;;;;;;15.67;14.67;;;;;;;;5089440;28;9738;-81
2021/10/24 09:43:22;;;;;;;;;14.00;13.00;;;;;;;;5092440;28;8899;-79
2021/10/24 09:46:08;;;;;;;;;16.50;14.50;;;;;;;;5085304;28;8820;-79
2021/10/24 09:48:34;;;;;;;;;11.75;11.00;;;;;;;;5088738;28;8817;-79
2021/10/24 09:51:00;;;;;;;;;12.67;12.00;;;;;;;;5089219;28;8829;-79
2021/10/24 09:53:26;;;;;;;;;14.50;14.50;;;;;;;;5093342;28;8828;-79
2021/10/24 09:55:55;;;;;;;;;14.75;13.75;;;;;;;;5091504;28;8870;-79
2021/10/24 09:58:23;;;;;;;;;13.33;13.33;;;;;;;;5095357;28;8913;-79
2021/10/24 10:00:48;;;;;;;;;13.50;11.75;;;;;;;;5093126;28;8873;-79
2021/10/24 10:03:14;;;;;;;;;13.33;13.33;;;;;;;;5093261;28;8824;-79
2021/10/24 10:05:39;;;;;;;;;12.00;12.00;;;;;;;;5094640;28;8805;-79
2021/10/24 10:08:09;;;;;;;;;11.67;10.00;;;;;;;;5093895;28;8854;-79
2021/10/24 10:10:46;;;;;;;;;10.00;10.00;;;;;;;;5097002;28;9817;-82
2021/10/24 10:13:12;;;;;;;;;13.75;13.25;;;;;;;;5095551;28;9030;-80
2021/10/24 10:15:42;;;;;;;;;9.00;9.00;;;;;;;;5097098;28;8802;-81
2021/10/24 10:18:08;;;;;;;;;11.75;11.00;;;;;;;;5096821;28;8822;-82
2021/10/24 10:20:35;;;;;;;;;11.00;9.67;;;;;;;;5097063;28;8769;-81
2021/10/24 10:23:02;;;;;;;;;10.75;10.75;;;;;;;;5100953;28;8722;-76
2021/10/24 10:25:29;;;;;;;;;12.75;12.75;;;;;;;;5098793;28;9808;-80
2021/10/24 10:27:55;;;;;;;;;13.75;12.75;;;;;;;;5098604;28;8820;-78
2021/10/24 10:30:32;;;;;;;;;11.25;10.00;;;;;;;;5108278;28;8794;-79
2021/10/24 10:32:57;;;;;;;;;16.00;12.67;;;;;;;;5118760;27;8780;-78
2021/10/24 10:35:24;;;;;;;;;10.00;10.00;;;;;;;;5118618;27;8877;-79
2021/10/24 10:37:50;;;;;;;;;12.50;12.25;;;;;;;;5118057;27;8732;-78
2021/10/24 10:40:37;;;;;;;;;8.67;8.67;;;;;;;;5118695;27;9601;-77
2021/10/24 10:43:05;;;;;;;;;11.50;10.50;;;;;;;;5118452;27;8767;-77
2021/10/24 10:45:33;;;;;;;;;10.25;10.25;;;;;;;;5118316;27;8775;-78
2021/10/24 10:48:00;;;;;;;;;11.75;10.75;;;;;;;;5118671;27;8810;-78
2021/10/24 10:50:32;;;;;;;;;11.25;10.75;;;;;;;;5118995;27;8787;-80
2021/10/24 10:53:02;;;;;;;;;10.00;9.50;;;;;;;;5117225;28;8775;-81
2021/10/24 10:55:47;;;;;;;;;10.75;10.75;;;;;;;;5120077;27;8793;-77
2021/10/24 10:58:39;;;;;;;;;13.75;13.50;;;;;;;;5118287;28;8846;-80
2021/10/24 11:01:05;;;;;;;;;11.00;10.75;;;;;;;;5117217;28;8807;-80
2021/10/24 11:03:44;;;;;;;;;13.25;11.75;;;;;;;;5119539;27;8875;-79
2021/10/24 11:06:28;;;;;;;;;12.75;10.00;;;;;;;;5116660;28;8779;-79
2021/10/24 11:08:54;;;;;;;;;11.50;11.00;;;;;;;;5117930;27;8805;-78
2021/10/24 11:14:15;;;;;;;;;10.00;10.00;;;;;;;;5118030;27;8771;-80
2021/10/24 11:16:44;;;;;;;;;9.50;9.50;;;;;;;;5117692;27;8787;-79
2021/10/24 11:19:46;;;;;;;;;13.25;12.50;;;;;;;;5116479;28;8925;-80
2021/10/24 11:22:14;;;;;;;;;14.25;14.00;;;;;;;;5117712;27;8775;-80
2021/10/24 11:24:40;;;;;;;;;11.25;11.00;;;;;;;;5117720;28;8763;-80
2021/10/24 11:27:07;;;;;;;;;12.33;12.33;;;;;;;;5115879;28;8813;-80
2021/10/24 11:29:32;;;;;;;;;14.75;12.50;;;;;;;;5114846;27;10546;-79
2021/10/24 11:32:17;;;;;;;;;14.00;14.00;;;;;;;;5097184;28;9576;-80
2021/10/24 11:34:42;;;;;;;;;14.50;14.50;;;;;;;;5093461;28;8831;-78
2021/10/24 11:37:08;;;;;;;;;14.67;14.00;;;;;;;;5090622;28;9563;-79
2021/10/24 11:39:33;;;;;;;;;14.67;13.00;;;;;;;;5094561;28;10086;-79
2021/10/24 11:42:08;;;;;;;;;18.67;17.67;;;;;;;;5095871;28;8801;-79
2021/10/24 11:44:33;;;;;;;;;12.75;12.75;;;;;;;;5090679;28;8818;-80
2021/10/24 11:47:09;;;;;;;;;13.33;13.00;;;;;;;;5111009;28;8821;-80
2021/10/24 11:49:46;;;;;;;;;16.00;14.00;;;;;;;;5117397;28;8878;-80
2021/10/24 11:52:42;;;;;;;;;16.00;16.00;;;;;;;;5115503;28;8853;-80
2021/10/24 11:55:14;;;;;;;;;19.50;15.25;;;;;;;;5112326;28;8904;-78
2021/10/24 11:57:59;;;;;;;;;16.50;15.75;;;;;;;;5115426;28;9563;-78
2021/10/24 12:01:05;;;;;;;;;11.00;11.00;;;;;;;;5117014;28;8776;-77
2021/10/24 12:03:27;;;;;;;;;13.75;13.00;;;;;;;;5113634;28;8795;-77
2021/10/24 12:05:52;;;;;;;;;14.75;12.50;;;;;;;;5116769;28;8787;-77
2021/10/24 12:08:19;;;;;;;;;12.67;12.67;;;;;;;;5117827;28;8799;-77
2021/10/24 12:10:48;;;;;;;;;15.50;14.75;;;;;;;;5117007;28;8787;-77
2021/10/24 12:13:30;;;;;;;;;11.25;11.25;;;;;;;;5115784;28;8799;-78
2021/10/24 12:15:56;;;;;;;;;13.25;13.25;;;;;;;;5097771;28;8805;-81
2021/10/24 12:18:24;;;;;;;;;13.67;12.67;;;;;;;;5085813;28;8932;-80
2021/10/24 12:20:54;;;;;;;;;11.75;11.75;;;;;;;;5095986;28;8714;-81
2021/10/24 12:23:19;;;;;;;;;11.25;11.00;;;;;;;;5095410;28;8789;-81
2021/10/24 12:25:49;;;;;;;;;12.00;11.67;;;;;;;;5097614;28;8827;-80
2021/10/24 12:28:19;;;;;;;;;12.25;12.00;;;;;;;;5098024;28;8749;-78
2021/10/24 12:30:48;;;;;;;;;14.75;13.50;;;;;;;;5096208;28;8782;-77
2021/10/24 12:33:25;;;;;;;;;12.75;12.75;;;;;;;;5096382;28;8774;-77
2021/10/24 12:35:51;;;;;;;;;15.75;13.00;;;;;;;;5097392;28;8800;-78
2021/10/24 12:38:16;;;;;;;;;13.33;12.00;;;;;;;;5095912;28;8781;-77
2021/10/24 12:40:55;;;;;;;;;11.33;9.33;;;;;;;;5099009;28;11604;-77
2021/10/24 12:43:21;;;;;;;;;10.50;10.50;;;;;;;;5098474;28;8904;-77
2021/10/24 12:45:49;;;;;;;;;13.33;12.67;;;;;;;;5098095;28;8876;-76
2021/10/24 12:48:15;;;;;;;;;12.00;12.00;;;;;;;;5101527;28;8782;-80
2021/10/24 12:50:41;;;;;;;;;11.33;11.33;;;;;;;;5099678;28;9066;-79
2021/10/24 12:53:11;;;;;;;;;16.33;13.00;;;;;;;;5099298;28;8821;-79
2021/10/24 12:55:37;;;;;;;;;11.25;11.25;;;;;;;;5099758;28;8786;-79
2021/10/24 12:58:02;;;;;;;;;11.75;10.75;;;;;;;;5102342;28;8806;-79
2021/10/24 13:00:29;;;;;;;;;11.00;11.00;;;;;;;;5101104;28;8785;-80
2021/10/24 13:02:54;;;;;;;;;13.00;12.50;;;;;;;;5099010;28;8790;-77
2021/10/24 13:05:19;;;;;;;;;11.00;10.67;;;;;;;;5100120;28;8810;-79
2021/10/24 13:07:44;;;;;;;;;12.67;12.67;;;;;;;;5099827;28;8814;-79
2021/10/24 13:10:10;;;;;;;;;12.33;12.00;;;;;;;;5099494;28;8858;-79
2021/10/24 13:12:41;;;;;;;;;12.00;12.00;;;;;;;;5093474;28;8992;-77
2021/10/24 13:15:06;;;;;;;;;12.25;12.25;;;;;;;;5098908;28;8702;-78
2021/10/24 13:17:32;;;;;;;;;13.00;12.00;;;;;;;;5097055;28;8821;-78
2021/10/24 13:19:57;;;;;;;;;13.33;12.67;;;;;;;;5097794;28;8802;-76
2021/10/24 13:25:13;;;;;;;;;9.75;9.75;;;;;;;;5098244;28;8786;-78
2021/10/24 13:27:38;;;;;;;;;11.00;10.25;;;;;;;;5093303;28;8869;-78
2021/10/24 13:30:06;;;;;;;;;12.00;10.00;;;;;;;;5098127;28;8809;-80
2021/10/24 13:32:32;;;;;;;;;10.00;10.00;;;;;;;;5098753;28;8863;-78
2021/10/24 13:34:57;;;;;;;;;13.33;13.33;;;;;;;;5098809;28;8797;-80
2021/10/24 13:37:22;;;;;;;;;12.00;11.00;;;;;;;;5097951;28;8990;-80
2021/10/24 13:39:48;;;;;;;;;10.00;10.00;;;;;;;;5098762;28;8812;-80
2021/10/24 13:42:16;;;;;;;;;14.00;11.00;;;;;;;;5098819;28;8801;-80
2021/10/24 13:44:41;;;;;;;;;10.00;10.00;;;;;;;;5096790;28;9695;-78
2021/10/24 13:47:06;;;;;;;;;11.33;9.33;;;;;;;;5098538;28;8836;-82
2021/10/24 13:49:31;;;;;;;;;12.00;12.00;;;;;;;;5098269;28;8777;-82
2021/10/24 13:51:56;;;;;;;;;11.67;11.67;;;;;;;;5097415;28;8765;-82
2021/10/24 13:54:22;;;;;;;;;11.00;11.00;;;;;;;;5098482;28;8821;-83
2021/10/24 13:56:47;;;;;;;;;11.33;9.67;;;;;;;;5098526;28;8904;-82
2021/10/24 13:59:15;;;;;;;;;13.00;11.67;;;;;;;;5097865;28;8920;-82
2021/10/24 14:01:41;;;;;;;;;11.25;11.25;;;;;;;;5095869;28;8836;-78
2021/10/24 14:04:09;;;;;;;;;12.00;10.00;;;;;;;;5097092;28;8794;-79
2021/10/24 14:06:34;;;;;;;;;10.75;10.25;;;;;;;;5098136;28;8770;-80
2021/10/24 14:09:00;;;;;;;;;15.33;12.67;;;;;;;;5094853;28;8814;-78
2021/10/24 14:11:25;;;;;;;;;15.00;13.00;;;;;;;;5096939;28;8822;-80
2021/10/24 14:13:51;;;;;;;;;11.67;11.67;;;;;;;;5098146;28;8810;-78
2021/10/24 14:16:16;;;;;;;;;13.00;13.00;;;;;;;;5097645;28;8836;-78
2021/10/24 14:18:42;;;;;;;;;11.67;11.33;;;;;;;;5098216;28;8813;-77
2021/10/24 14:21:07;;;;;;;;;10.33;10.33;;;;;;;;5096521;28;8899;-78
2021/10/24 14:23:33;;;;;;;;;9.00;8.00;;;;;;;;5097942;28;8773;-81
2021/10/24 14:25:59;;;;;;;;;9.00;9.00;;;;;;;;5098118;28;8730;-80
2021/10/24 14:28:24;;;;;;;;;13.00;11.33;;;;;;;;5097904;28;8813;-78
2021/10/24 14:30:50;;;;;;;;;16.00;15.00;;;;;;;;5100639;28;8801;-78
2021/10/24 14:33:15;;;;;;;;;12.00;12.00;;;;;;;;5096554;28;8833;-78
2021/10/24 14:35:40;;;;;;;;;9.00;9.00;;;;;;;;5097612;28;8789;-78